Terminal Aerodrome Forecast
Issued by NWS Jackson, MS

Home | Current Version | Previous Version | Text Only | Print | Product List | Glossary On
Versions: 1 2 3 4 5 6 7 8 9 10 11 12 13 14
000
FTUS44 KJAN 280219 AAA
TAFMEI
TAF AMD
KMEI 280219Z 2802/2824 16007KT P6SM SCT035 BKN050
     FM280400 17010KT P6SM SCT007 BKN015
     FM280600 17009KT 4SM BR OVC005
     FM281600 18014G23KT P6SM SCT007 BKN015
     FM282000 19014G23KT P6SM SCT020 BKN035=

USA.gov is the U.S. government's official web portal to all federal, state and local government web resources and services.